Time;durP1;ratioP1;P1;durP2;ratioP2;P2;SDS_P1;SDS_P2;PMS_P1;PMS_P2;Temp;Humidity;BMP_temperature;BMP_pressure;BME280_temperature;BME280_humidity;BME280_pressure;Samples;Min_cycle;Max_cycle;Signal;HPM_P1;HPM_P2
2022/05/24 00:00:20;;;;;;;4.43;3.57;;;18.50;78.30;;;;;;4988856;28;20463;-47
2022/05/24 00:02:47;;;;;;;5.60;3.90;;;18.50;78.20;;;;;;4987567;28;20840;-47
2022/05/24 00:05:15;;;;;;;4.43;4.03;;;18.40;78.60;;;;;;5005955;28;20817;-47
2022/05/24 00:07:42;;;;;;;5.43;3.50;;;18.40;78.80;;;;;;4990757;28;20848;-47
2022/05/24 00:10:13;;;;;;;6.83;3.80;;;18.40;78.80;;;;;;4993002;28;21038;-47
2022/05/24 00:12:39;;;;;;;4.10;3.50;;;18.40;79.40;;;;;;5006187;28;20467;-47
2022/05/24 00:15:24;;;;;;;5.60;5.00;;;18.40;79.30;;;;;;5006809;28;20464;-47
2022/05/24 00:18:05;;;;;;;3.30;3.10;;;18.40;79.00;;;;;;5002951;28;20491;-47
2022/05/24 00:20:42;;;;;;;4.30;3.97;;;18.40;78.60;;;;;;5004445;28;20492;-47
2022/05/24 00:23:10;;;;;;;4.40;3.50;;;18.40;78.40;;;;;;4989067;28;20489;-47
2022/05/24 00:25:44;;;;;;;4.80;3.90;;;18.40;78.00;;;;;;5007169;28;20479;-47
2022/05/24 00:28:12;;;;;;;3.63;3.33;;;18.40;78.30;;;;;;5007288;28;20464;-47
2022/05/24 00:30:40;;;;;;;3.37;3.07;;;18.30;78.70;;;;;;5006225;28;20491;-47
2022/05/24 00:33:07;;;;;;;4.77;3.70;;;18.40;78.30;;;;;;5008460;28;20531;-47
2022/05/24 00:35:33;;;;;;;3.33;3.03;;;18.40;78.30;;;;;;5008717;28;20449;-47
2022/05/24 00:38:01;;;;;;;3.53;3.00;;;18.40;78.10;;;;;;5008698;28;20885;-47
2022/05/24 00:41:25;;;;;;;3.17;2.87;;;18.40;77.90;;;;;;4990325;28;20500;-47
2022/05/24 00:44:08;;;;;;;4.07;3.67;;;18.30;78.10;;;;;;4906817;29;20461;-47
2022/05/24 00:46:54;;;;;;;4.80;3.20;;;18.30;78.00;;;;;;4997826;28;20471;-47
2022/05/24 00:49:25;;;;;;;3.27;3.07;;;18.30;78.10;;;;;;5007555;28;20603;-47
2022/05/24 00:51:59;;;;;;;4.03;3.10;;;18.30;78.20;;;;;;4989646;28;20470;-47
2022/05/24 00:54:25;;;;;;;4.10;3.27;;;18.20;78.60;;;;;;4989793;28;21005;-47
2022/05/24 00:57:19;;;;;;;3.73;3.43;;;18.20;78.80;;;;;;4990308;28;20464;-47
2022/05/24 00:59:54;;;;;;;5.53;2.90;;;18.30;78.70;;;;;;4999722;28;20509;-47
2022/05/24 01:02:22;;;;;;;3.40;3.07;;;18.30;78.00;;;;;;5009203;28;20459;-47
2022/05/24 01:04:49;;;;;;;3.27;2.97;;;18.30;77.30;;;;;;5007584;28;20464;-47
2022/05/24 01:07:16;;;;;;;3.13;2.83;;;18.30;77.40;;;;;;5011897;28;20482;-47
2022/05/24 01:09:51;;;;;;;3.47;3.17;;;18.30;77.40;;;;;;5010697;28;20492;-47
2022/05/24 01:12:21;;;;;;;3.20;3.00;;;18.20;76.80;;;;;;5007590;28;20493;-48
2022/05/24 01:14:48;;;;;;;3.67;3.37;;;18.20;77.10;;;;;;5011179;28;20460;-47
2022/05/24 01:17:16;;;;;;;3.60;3.03;;;18.20;77.20;;;;;;5008894;28;20492;-47
2022/05/24 01:19:46;;;;;;;3.10;2.87;;;18.10;77.70;;;;;;4989712;28;20851;-47
2022/05/24 01:23:03;;;;;;;3.50;3.03;;;18.10;78.00;;;;;;5011152;28;20492;-47
2022/05/24 01:25:38;;;;;;;3.90;3.10;;;18.10;78.50;;;;;;4943081;28;21148;-47
2022/05/24 01:28:11;;;;;;;3.67;3.37;;;18.10;78.60;;;;;;4947516;28;20541;-47
2022/05/24 01:30:38;;;;;;;4.27;3.00;;;18.10;78.30;;;;;;4985978;28;20500;-46
2022/05/24 01:38:39;;;;;;;4.40;4.00;;;18.10;77.90;;;;;;5010172;28;20493;-47
2022/05/24 01:41:07;;;;;;;5.67;4.20;;;18.10;77.80;;;;;;5008682;28;20555;-47
2022/05/24 01:43:35;;;;;;;4.23;3.43;;;18.10;77.90;;;;;;5007818;28;20467;-47
2022/05/24 01:46:06;;;;;;;4.07;3.43;;;18.10;77.80;;;;;;5010028;28;20984;-47
2022/05/24 01:48:40;;;;;;;4.30;3.90;;;18.00;77.60;;;;;;5004951;28;20468;-46
2022/05/24 01:51:10;;;;;;;3.90;3.50;;;18.00;78.10;;;;;;4996787;28;20491;-46
2022/05/24 01:53:42;;;;;;;4.57;4.17;;;17.90;78.50;;;;;;5008995;28;20856;-46
2022/05/24 01:56:38;;;;;;;5.70;4.40;;;17.90;78.60;;;;;;5008281;28;20449;-47
2022/05/24 01:59:07;;;;;;;4.97;4.00;;;17.90;78.70;;;;;;5008189;28;20503;-46
2022/05/24 02:01:42;;;;;;;4.97;4.10;;;17.90;78.50;;;;;;5009389;28;20507;-46
2022/05/24 02:04:09;;;;;;;5.00;4.10;;;18.00;78.30;;;;;;5007421;28;20459;-46
2022/05/24 02:06:37;;;;;;;5.60;4.60;;;18.00;78.30;;;;;;5006287;28;20496;-47
2022/05/24 02:09:06;;;;;;;5.67;4.80;;;18.00;78.50;;;;;;5007509;28;20899;-47
2022/05/24 02:11:34;;;;;;;4.30;4.00;;;17.90;78.80;;;;;;5008491;28;20522;-47
2022/05/24 02:14:32;;;;;;;5.93;4.23;;;17.90;79.10;;;;;;5010798;28;20560;-46
2022/05/24 02:17:06;;;;;;;5.37;4.40;;;17.90;79.10;;;;;;4976440;28;20564;-46
2022/05/24 02:19:37;;;;;;;6.07;4.60;;;17.90;78.80;;;;;;4988119;28;20494;-47
2022/05/24 02:22:09;;;;;;;4.80;4.40;;;17.90;78.90;;;;;;4976494;28;20468;-47
2022/05/24 02:24:36;;;;;;;5.23;4.63;;;17.90;79.20;;;;;;5007249;28;20468;-47
2022/05/24 02:27:04;;;;;;;4.50;4.10;;;17.90;79.50;;;;;;5010182;28;20468;-48
2022/05/24 02:29:31;;;;;;;6.40;4.60;;;17.90;79.80;;;;;;5009531;28;20468;-48
2022/05/24 02:31:58;;;;;;;6.23;5.13;;;17.90;79.60;;;;;;5006515;28;20472;-48
2022/05/24 02:34:25;;;;;;;5.20;4.70;;;17.90;79.60;;;;;;5008307;28;20957;-48
2022/05/24 02:36:51;;;;;;;5.53;5.00;;;17.80;79.60;;;;;;5009704;28;20463;-48
2022/05/24 02:39:18;;;;;;;5.43;4.93;;;17.80;79.70;;;;;;5007815;28;20495;-47
2022/05/24 02:41:45;;;;;;;4.13;3.70;;;17.80;79.90;;;;;;5008760;28;20462;-47
2022/05/24 02:44:16;;;;;;;4.47;4.03;;;17.80;80.00;;;;;;5007650;28;21059;-47
2022/05/24 02:46:46;;;;;;;6.47;5.10;;;17.80;80.10;;;;;;5006560;28;20907;-45
2022/05/24 02:49:13;;;;;;;5.80;4.53;;;17.70;80.20;;;;;;4976944;28;20461;-43
2022/05/24 02:51:41;;;;;;;5.57;4.60;;;17.70;80.20;;;;;;4989971;28;20775;-42
2022/05/24 02:54:08;;;;;;;5.43;4.93;;;17.70;80.20;;;;;;5009413;28;20465;-42
2022/05/24 02:56:35;;;;;;;5.53;5.07;;;17.70;80.20;;;;;;5008973;28;20469;-42
2022/05/24 02:59:03;;;;;;;5.10;4.40;;;17.70;80.20;;;;;;5007798;28;20814;-42
2022/05/24 03:01:30;;;;;;;5.53;4.83;;;17.70;80.30;;;;;;5006683;28;20602;-42
2022/05/24 03:03:57;;;;;;;5.87;5.23;;;17.60;80.50;;;;;;5007610;28;20996;-42
2022/05/24 03:06:25;;;;;;;5.30;4.80;;;17.70;80.30;;;;;;4991281;28;20919;-42
2022/05/24 03:14:24;;;;;;;6.77;5.20;;;17.60;80.00;;;;;;5004734;28;20467;-42
2022/05/24 03:16:52;;;;;;;6.33;5.70;;;17.50;80.20;;;;;;5006730;28;20514;-43
2022/05/24 03:19:20;;;;;;;6.10;5.50;;;17.50;80.40;;;;;;5007939;28;20467;-43
2022/05/24 03:21:47;;;;;;;5.70;5.20;;;17.50;80.50;;;;;;4992131;28;20468;-43
2022/05/24 03:24:14;;;;;;;6.47;5.97;;;17.50;80.30;;;;;;5005323;28;20985;-43
2022/05/24 03:26:40;;;;;;;6.80;5.87;;;17.50;80.00;;;;;;4991799;28;20822;-43
2022/05/24 03:29:07;;;;;;;6.43;5.70;;;17.50;79.90;;;;;;4986237;28;20463;-43
2022/05/24 03:31:35;;;;;;;7.40;6.70;;;17.50;79.80;;;;;;5007043;28;20502;-43
2022/05/24 03:34:02;;;;;;;7.13;6.43;;;17.40;79.80;;;;;;4989022;28;20885;-43
2022/05/24 03:36:29;;;;;;;8.43;7.00;;;17.40;79.80;;;;;;5008257;28;20985;-43
2022/05/24 03:38:56;;;;;;;8.83;7.00;;;17.40;79.80;;;;;;5007536;28;20459;-43
2022/05/24 03:41:23;;;;;;;9.73;7.50;;;17.40;80.00;;;;;;5005166;28;20478;-43
2022/05/24 03:43:49;;;;;;;8.30;7.40;;;17.40;80.10;;;;;;5008996;28;20471;-43
2022/05/24 03:46:16;;;;;;;9.60;8.00;;;17.40;80.30;;;;;;5006264;28;20852;-43
2022/05/24 03:48:43;;;;;;;8.57;7.87;;;17.40;80.30;;;;;;4990206;28;20842;-43
2022/05/24 03:51:10;;;;;;;8.57;7.70;;;17.40;80.50;;;;;;5004240;28;21149;-43
2022/05/24 03:53:37;;;;;;;8.50;7.70;;;17.40;80.50;;;;;;5008303;28;20559;-42
2022/05/24 03:56:04;;;;;;;11.00;9.47;;;17.40;80.60;;;;;;5005568;28;20466;-43
2022/05/24 03:58:32;;;;;;;9.87;8.97;;;17.40;80.60;;;;;;4987815;28;20622;-43
2022/05/24 04:00:58;;;;;;;10.80;9.70;;;17.40;80.70;;;;;;5005490;28;20464;-43
2022/05/24 04:03:25;;;;;;;10.77;9.73;;;17.40;80.90;;;;;;4991749;28;21043;-43
2022/05/24 04:05:52;;;;;;;10.50;9.40;;;17.40;81.00;;;;;;5006712;28;20555;-43
2022/05/24 04:08:24;;;;;;;13.70;9.97;;;17.40;81.00;;;;;;4989595;28;20468;-43
2022/05/24 04:11:15;;;;;;;10.00;8.73;;;17.40;81.10;;;;;;5003159;28;20488;-43
2022/05/24 04:13:42;;;;;;;11.00;9.90;;;17.40;81.20;;;;;;5007312;28;20463;-43
2022/05/24 04:16:09;;;;;;;9.80;8.90;;;17.40;81.10;;;;;;5006720;28;20892;-43
2022/05/24 04:18:36;;;;;;;10.10;9.20;;;17.40;81.10;;;;;;5005974;28;20834;-43
2022/05/24 04:21:03;;;;;;;9.80;8.50;;;17.40;81.20;;;;;;5004621;28;20763;-43
2022/05/24 04:23:30;;;;;;;9.60;8.60;;;17.40;81.20;;;;;;4988915;28;20459;-43
2022/05/24 04:25:57;;;;;;;8.70;7.87;;;17.40;81.30;;;;;;5003416;28;20828;-43
2022/05/24 04:28:24;;;;;;;10.13;9.07;;;17.50;81.30;;;;;;5009112;28;20459;-43
2022/05/24 04:30:52;;;;;;;10.23;9.13;;;17.50;81.10;;;;;;5007246;28;20591;-43
2022/05/24 04:33:19;;;;;;;9.40;8.40;;;17.60;80.90;;;;;;5009671;28;20472;-43
2022/05/24 04:35:46;;;;;;;9.27;8.30;;;17.50;81.00;;;;;;4990126;28;20491;-43
2022/05/24 04:38:13;;;;;;;10.40;8.20;;;17.50;81.10;;;;;;5012795;28;20461;-43
2022/05/24 04:43:25;;;;;;;8.20;7.50;;;17.60;81.20;;;;;;5012356;28;20471;-43
2022/05/24 04:45:53;;;;;;;9.20;7.90;;;17.50;81.30;;;;;;5011530;28;20467;-43
2022/05/24 04:48:21;;;;;;;8.43;7.37;;;17.50;81.10;;;;;;5003662;28;20456;-43
2022/05/24 04:50:52;;;;;;;6.87;6.20;;;17.60;80.90;;;;;;5005010;28;20488;-43
2022/05/24 04:53:19;;;;;;;7.13;6.43;;;17.60;81.10;;;;;;4992703;28;20460;-43
2022/05/24 04:55:48;;;;;;;7.23;6.37;;;17.60;81.20;;;;;;4986163;28;20464;-43
2022/05/24 04:58:19;;;;;;;6.80;6.20;;;17.60;81.40;;;;;;4991808;28;21007;-43
2022/05/24 05:00:48;;;;;;;9.37;6.60;;;17.60;81.40;;;;;;4997478;28;20464;-43
2022/05/24 05:03:17;;;;;;;8.50;7.70;;;17.70;81.30;;;;;;5009440;28;20484;-43
2022/05/24 05:05:48;;;;;;;7.27;6.53;;;17.70;81.20;;;;;;4990704;28;20981;-43
2022/05/24 05:08:15;;;;;;;6.87;6.17;;;17.70;81.20;;;;;;5008633;28;20995;-43
2022/05/24 05:10:42;;;;;;;7.20;6.13;;;17.70;81.40;;;;;;5006974;28;21020;-43
2022/05/24 05:13:09;;;;;;;10.13;6.30;;;17.70;81.50;;;;;;4988079;28;20468;-43
2022/05/24 05:15:37;;;;;;;11.60;5.57;;;17.80;80.70;;;;;;5009253;28;20842;-43
2022/05/24 05:18:06;;;;;;;6.77;6.20;;;17.80;80.70;;;;;;5011484;28;20460;-43
2022/05/24 05:20:38;;;;;;;5.50;5.00;;;17.80;80.40;;;;;;5003413;28;20468;-43
2022/05/24 05:23:13;;;;;;;5.07;4.57;;;17.80;80.00;;;;;;5004916;28;20483;-42
2022/05/24 05:25:42;;;;;;;4.43;4.13;;;17.80;80.20;;;;;;5007350;28;21032;-42
2022/05/24 05:28:09;;;;;;;5.03;4.10;;;17.70;80.10;;;;;;5010156;28;20468;-43
2022/05/24 05:33:24;;;;;;;3.10;2.90;;;17.70;80.30;;;;;;5008899;28;20913;-42
2022/05/24 05:35:51;;;;;;;2.77;2.20;;;17.60;79.70;;;;;;4993344;28;20456;-42
2022/05/24 05:38:18;;;;;;;3.53;3.23;;;17.60;79.10;;;;;;5008399;28;20464;-43
2022/05/24 05:40:45;;;;;;;2.87;2.67;;;17.50;79.70;;;;;;5010665;28;20464;-43
2022/05/24 05:43:12;;;;;;;2.70;2.50;;;17.50;79.20;;;;;;5010830;28;20465;-45
2022/05/24 05:45:39;;;;;;;3.20;2.60;;;17.40;79.20;;;;;;5009876;28;20544;-45
2022/05/24 05:48:06;;;;;;;2.83;2.23;;;17.30;79.20;;;;;;4990298;28;20459;-45
2022/05/24 05:50:33;;;;;;;3.80;2.40;;;17.30;79.90;;;;;;4990680;28;20484;-45
2022/05/24 05:53:03;;;;;;;2.30;2.10;;;17.30;81.40;;;;;;5006497;28;20449;-45
2022/05/24 05:55:31;;;;;;;3.03;2.40;;;17.20;82.60;;;;;;5008223;28;20457;-45
2022/05/24 05:57:58;;;;;;;3.20;2.53;;;17.20;83.20;;;;;;5006443;28;20550;-45
2022/05/24 06:00:25;;;;;;;2.40;2.10;;;17.20;83.70;;;;;;4992126;28;20461;-44
2022/05/24 06:02:51;;;;;;;2.77;2.50;;;17.10;83.50;;;;;;4992238;28;20456;-44
2022/05/24 06:05:25;;;;;;;3.20;2.43;;;17.00;83.50;;;;;;5008968;28;20491;-45
2022/05/24 06:07:54;;;;;;;1.97;1.87;;;17.00;83.30;;;;;;5007532;28;20464;-42
2022/05/24 06:10:21;;;;;;;2.40;1.83;;;16.90;83.10;;;;;;5008061;28;20455;-42
2022/05/24 06:12:48;;;;;;;1.33;1.23;;;16.90;84.30;;;;;;5002245;28;20466;-46
2022/05/24 06:15:16;;;;;;;1.90;1.20;;;16.90;84.50;;;;;;5000891;28;20470;-45
2022/05/24 06:17:44;;;;;;;1.90;1.50;;;16.90;83.10;;;;;;5006349;28;20463;-45
2022/05/24 06:20:14;;;;;;;1.53;1.43;;;16.90;83.90;;;;;;5007448;28;20487;-46
2022/05/24 06:22:41;;;;;;;1.93;1.50;;;16.90;84.10;;;;;;5008640;28;20468;-46
2022/05/24 06:25:10;;;;;;;1.90;1.20;;;17.00;83.50;;;;;;4991408;28;20476;-45
2022/05/24 06:27:37;;;;;;;1.27;1.13;;;17.10;82.30;;;;;;5010429;28;20468;-46
2022/05/24 06:30:05;;;;;;;2.20;1.53;;;17.10;80.50;;;;;;5009341;28;20881;-46
2022/05/24 06:32:33;;;;;;;1.73;1.20;;;17.10;80.60;;;;;;5007722;28;20498;-46
2022/05/24 06:35:00;;;;;;;1.20;1.10;;;17.10;80.60;;;;;;5006281;28;20460;-46
2022/05/24 06:37:26;;;;;;;1.17;1.00;;;17.10;80.00;;;;;;5009514;28;20460;-45
2022/05/24 06:39:53;;;;;;;1.43;1.30;;;17.10;80.80;;;;;;5010240;28;20459;-46
2022/05/24 06:42:20;;;;;;;2.83;1.20;;;17.00;81.60;;;;;;4989383;28;20560;-45
2022/05/24 06:44:47;;;;;;;1.73;1.17;;;17.10;81.60;;;;;;5008655;28;21003;-44
2022/05/24 06:47:15;;;;;;;0.90;0.90;;;17.10;81.60;;;;;;5007674;28;20459;-45
2022/05/24 06:49:47;;;;;;;1.20;1.10;;;17.00;80.40;;;;;;5009027;28;20445;-45
2022/05/24 06:52:15;;;;;;;1.00;0.93;;;17.00;81.10;;;;;;4991467;28;20484;-46
2022/05/24 06:54:42;;;;;;;1.93;0.70;;;17.00;81.30;;;;;;4975267;28;20452;-46
2022/05/24 06:57:10;;;;;;;1.40;0.80;;;17.00;79.80;;;;;;4988467;28;20826;-46
2022/05/24 07:02:25;;;;;;;0.70;0.63;;;16.90;78.40;;;;;;4993850;28;20507;-45
2022/05/24 07:05:13;;;;;;;1.40;0.83;;;16.90;78.10;;;;;;5010743;28;20460;-45
2022/05/24 07:07:40;;;;;;;1.17;0.87;;;16.80;77.00;;;;;;5006651;28;20469;-45
2022/05/24 07:10:10;;;;;;;1.30;0.97;;;16.80;77.40;;;;;;5007075;28;20480;-45
2022/05/24 07:12:37;;;;;;;1.13;0.93;;;16.80;77.90;;;;;;5000679;28;20488;-45
2022/05/24 07:15:05;;;;;;;0.80;0.80;;;16.80;78.30;;;;;;5005727;28;20458;-44
2022/05/24 07:17:32;;;;;;;0.83;0.70;;;16.80;77.90;;;;;;5006325;28;20550;-45
2022/05/24 07:19:59;;;;;;;0.70;0.60;;;16.80;77.90;;;;;;5006216;28;20514;-45
2022/05/24 07:22:25;;;;;;;0.63;0.50;;;16.80;77.10;;;;;;5005021;28;20961;-45
2022/05/24 07:24:52;;;;;;;1.43;0.57;;;16.90;77.60;;;;;;5005577;28;20566;-45
2022/05/24 07:27:21;;;;;;;0.57;0.50;;;16.90;78.10;;;;;;5008112;28;20478;-45
2022/05/24 07:29:49;;;;;;;1.20;0.77;;;16.80;77.00;;;;;;5004485;28;20464;-46
2022/05/24 07:32:16;;;;;;;4.23;0.80;;;16.80;77.80;;;;;;5004168;28;21005;-45
2022/05/24 07:34:43;;;;;;;1.40;0.50;;;16.90;78.00;;;;;;5007099;28;20851;-45
2022/05/24 07:37:15;;;;;;;0.97;0.60;;;16.90;78.20;;;;;;5005361;28;21342;-46
2022/05/24 07:39:41;;;;;;;0.70;0.53;;;16.90;78.10;;;;;;5003323;28;20455;-45
2022/05/24 07:47:41;;;;;;;0.70;0.57;;;17.20;76.70;;;;;;5004200;28;20547;-45
2022/05/24 07:50:09;;;;;;;0.50;0.40;;;17.30;73.60;;;;;;5003685;28;20476;-45
2022/05/24 07:52:36;;;;;;;0.70;0.60;;;17.30;73.40;;;;;;5004906;28;20935;-45
2022/05/24 07:55:03;;;;;;;0.90;0.60;;;17.40;71.90;;;;;;5008965;28;20459;-46
2022/05/24 07:57:30;;;;;;;2.13;0.40;;;17.40;72.50;;;;;;5003984;28;20899;-45
2022/05/24 08:00:04;;;;;;;2.60;0.60;;;17.50;71.20;;;;;;5000759;28;20495;-45
2022/05/24 08:02:31;;;;;;;1.73;0.80;;;17.60;72.90;;;;;;5004759;28;21044;-45
2022/05/24 08:04:58;;;;;;;0.80;0.50;;;17.60;70.30;;;;;;5009468;28;20448;-45
2022/05/24 08:07:24;;;;;;;0.80;0.40;;;17.70;71.20;;;;;;4989274;28;20478;-45
2022/05/24 08:09:51;;;;;;;0.53;0.40;;;17.70;71.20;;;;;;5006297;28;20547;-45
2022/05/24 08:12:18;;;;;;;3.37;0.53;;;17.80;71.50;;;;;;5009035;28;21035;-45
2022/05/24 08:14:45;;;;;;;0.43;0.37;;;17.90;70.10;;;;;;5005106;28;20464;-45
2022/05/24 08:17:12;;;;;;;0.90;0.40;;;18.10;70.50;;;;;;4985507;28;20460;-45
2022/05/24 08:19:39;;;;;;;0.50;0.50;;;18.20;69.40;;;;;;5005317;28;20845;-45
2022/05/24 08:22:06;;;;;;;0.70;0.50;;;18.40;68.20;;;;;;5006848;28;20995;-46
2022/05/24 08:24:34;;;;;;;1.23;0.60;;;18.50;67.90;;;;;;4986956;28;20467;-45
2022/05/24 08:27:01;;;;;;;1.67;0.60;;;18.50;67.80;;;;;;5004381;28;20986;-45
2022/05/24 08:29:27;;;;;;;2.10;0.50;;;18.50;67.20;;;;;;5009093;28;20471;-45
2022/05/24 08:31:54;;;;;;;1.17;0.60;;;18.60;67.00;;;;;;5005929;28;20492;-45
2022/05/24 08:34:21;;;;;;;3.50;0.43;;;18.60;66.90;;;;;;5008570;28;20484;-45
2022/05/24 08:36:48;;;;;;;0.70;0.40;;;18.60;65.80;;;;;;5002841;28;20483;-45
2022/05/24 08:39:15;;;;;;;0.83;0.43;;;18.50;64.30;;;;;;5009129;28;20460;-45
2022/05/24 08:42:05;;;;;;;0.80;0.60;;;18.60;64.70;;;;;;5005230;28;20460;-45
2022/05/24 08:50:15;;;;;;;0.70;0.30;;;19.20;63.60;;;;;;5006462;28;20826;-45
2022/05/24 08:53:15;;;;;;;0.50;0.50;;;19.40;60.70;;;;;;5005815;28;20503;-46
2022/05/24 08:55:43;;;;;;;0.50;0.40;;;19.60;61.70;;;;;;4972849;28;20893;-45
2022/05/24 08:58:21;;;;;;;1.77;0.57;;;19.80;61.50;;;;;;4988918;28;20465;-45
2022/05/24 09:00:48;;;;;;;0.70;0.40;;;20.00;61.30;;;;;;4984132;28;21027;-46
2022/05/24 09:03:15;;;;;;;0.93;0.50;;;20.10;60.00;;;;;;5006528;28;20575;-45
2022/05/24 09:05:49;;;;;;;0.80;0.50;;;20.20;59.80;;;;;;5006403;28;20464;-45
2022/05/24 09:08:21;;;;;;;1.20;0.50;;;20.30;59.40;;;;;;5002667;28;20464;-45
2022/05/24 09:11:12;;;;;;;0.50;0.43;;;20.30;59.50;;;;;;5005013;28;20469;-44
2022/05/24 09:13:51;;;;;;;0.60;0.40;;;20.20;59.70;;;;;;4993664;28;20985;-44
2022/05/24 09:16:18;;;;;;;0.50;0.40;;;20.10;62.30;;;;;;4992398;28;20467;-44
2022/05/24 09:18:55;;;;;;;1.37;0.40;;;20.10;61.20;;;;;;5007908;28;20521;-45
2022/05/24 09:21:26;;;;;;;0.60;0.50;;;20.10;59.90;;;;;;5007989;28;20490;-45
2022/05/24 09:24:19;;;;;;;0.63;0.47;;;20.20;61.00;;;;;;5007696;28;20456;-44
2022/05/24 09:27:01;;;;;;;0.80;0.60;;;20.30;59.30;;;;;;5011437;28;20569;-45
2022/05/24 09:29:28;;;;;;;0.97;0.60;;;20.40;59.90;;;;;;5011307;28;20838;-44
2022/05/24 09:31:57;;;;;;;0.67;0.40;;;20.60;59.90;;;;;;4992786;28;20505;-44
2022/05/24 09:34:33;;;;;;;0.70;0.50;;;20.80;58.30;;;;;;5007754;28;20456;-44
2022/05/24 09:37:26;;;;;;;0.60;0.30;;;21.00;57.60;;;;;;5009389;28;20539;-44
2022/05/24 09:40:00;;;;;;;0.80;0.50;;;21.20;57.20;;;;;;5009531;28;20460;-45
2022/05/24 09:42:30;;;;;;;2.53;0.60;;;21.30;56.10;;;;;;5007475;28;20497;-44
2022/05/24 09:45:10;;;;;;;0.80;0.50;;;21.60;56.90;;;;;;4993099;28;20458;-42
2022/05/24 09:47:43;;;;;;;0.73;0.40;;;21.80;56.80;;;;;;5008591;28;20474;-42
2022/05/24 09:50:30;;;;;;;1.73;0.40;;;22.00;55.20;;;;;;4990900;28;20988;-42
2022/05/24 09:53:02;;;;;;;1.10;0.50;;;21.90;55.40;;;;;;4988475;28;20486;-42
2022/05/24 09:55:45;;;;;;;0.70;0.37;;;21.90;54.90;;;;;;5005695;28;20510;-42
2022/05/24 09:58:18;;;;;;;0.83;0.83;;;21.90;54.10;;;;;;5010987;28;20559;-42
2022/05/24 10:00:52;;;;;;;1.43;0.53;;;22.00;55.60;;;;;;5006620;28;20981;-42
2022/05/24 10:03:31;;;;;;;0.50;0.40;;;22.30;54.40;;;;;;5004262;28;20467;-43
2022/05/24 10:06:20;;;;;;;1.30;0.43;;;22.60;52.90;;;;;;5006041;28;20470;-42
2022/05/24 10:09:00;;;;;;;1.27;0.67;;;22.50;52.30;;;;;;4987766;28;20459;-43
2022/05/24 10:11:48;;;;;;;1.43;0.60;;;22.40;53.40;;;;;;5008043;28;20464;-43
2022/05/24 10:14:43;;;;;;;1.50;0.90;;;22.30;54.20;;;;;;5006635;28;20460;-43
2022/05/24 10:17:14;;;;;;;1.23;1.13;;;22.10;52.00;;;;;;5004664;28;20494;-42
2022/05/24 10:19:43;;;;;;;0.90;0.70;;;22.00;51.30;;;;;;5005625;28;20456;-42
2022/05/24 10:22:33;;;;;;;0.63;0.47;;;22.00;52.80;;;;;;5002730;28;20914;-42
2022/05/24 10:25:25;;;;;;;1.23;0.80;;;22.00;53.10;;;;;;5000968;28;20527;-42
2022/05/24 10:28:08;;;;;;;1.60;0.73;;;22.00;53.70;;;;;;5005719;28;20472;-43
2022/05/24 10:30:54;;;;;;;1.37;0.70;;;21.90;54.40;;;;;;5007781;28;20973;-43
2022/05/24 10:40:07;;;;;;;0.97;0.67;;;21.20;56.60;;;;;;5007508;28;20562;-43
2022/05/24 10:43:19;;;;;;;0.63;0.60;;;21.00;53.60;;;;;;5002975;28;20467;-43
2022/05/24 10:45:51;;;;;;;2.20;0.50;;;20.80;53.60;;;;;;4978248;28;20478;-42
2022/05/24 10:48:31;;;;;;;0.63;0.40;;;20.60;53.70;;;;;;5008165;28;20468;-42
2022/05/24 10:51:12;;;;;;;1.00;0.60;;;20.40;54.70;;;;;;5007387;28;21201;-43
2022/05/24 10:53:58;;;;;;;0.73;0.57;;;20.20;54.20;;;;;;5008168;28;20521;-42
2022/05/24 10:56:46;;;;;;;1.57;0.70;;;20.00;54.40;;;;;;5009917;28;20491;-46
2022/05/24 10:59:20;;;;;;;1.63;0.83;;;19.90;55.00;;;;;;4989825;28;20556;-45
2022/05/24 11:01:57;;;;;;;1.20;0.50;;;19.90;54.80;;;;;;4990064;28;20973;-42
2022/05/24 11:04:32;;;;;;;0.60;0.50;;;19.80;55.20;;;;;;4990376;28;20961;-43
2022/05/24 11:07:11;;;;;;;1.90;0.90;;;19.70;56.30;;;;;;4993834;28;20478;-42
2022/05/24 11:09:52;;;;;;;0.67;0.67;;;19.70;56.60;;;;;;4989095;28;20596;-43
2022/05/24 11:12:26;;;;;;;1.13;0.80;;;19.60;57.20;;;;;;5009963;28;20498;-42
2022/05/24 11:15:03;;;;;;;1.03;0.50;;;19.60;58.60;;;;;;5008712;28;20465;-43
2022/05/24 11:17:30;;;;;;;1.33;0.67;;;19.60;57.20;;;;;;4987725;28;20568;-42
2022/05/24 11:19:59;;;;;;;1.00;0.63;;;19.60;56.50;;;;;;5009151;28;20459;-42
2022/05/24 11:22:45;;;;;;;0.70;0.53;;;19.70;55.30;;;;;;4988847;28;20460;-42
2022/05/24 11:25:22;;;;;;;0.73;0.40;;;19.70;52.80;;;;;;5004419;28;20467;-42
2022/05/24 11:28:11;;;;;;;0.60;0.60;;;19.60;53.30;;;;;;5004072;28;20552;-42
2022/05/24 11:30:40;;;;;;;0.80;0.50;;;19.60;55.60;;;;;;5007720;28;20960;-42
2022/05/24 11:33:13;;;;;;;1.43;0.70;;;19.60;53.80;;;;;;4989979;28;20591;-42
2022/05/24 11:35:52;;;;;;;1.50;0.90;;;19.60;55.10;;;;;;4981305;28;20556;-42
2022/05/24 11:38:21;;;;;;;1.13;0.60;;;19.60;54.40;;;;;;4991229;28;20531;-42
2022/05/24 11:40:54;;;;;;;2.70;0.90;;;19.60;55.10;;;;;;5005906;28;20452;-43
2022/05/24 11:43:50;;;;;;;1.57;0.73;;;19.60;54.60;;;;;;4990376;28;20499;-42
2022/05/24 11:46:38;;;;;;;1.00;0.60;;;19.60;54.80;;;;;;4951698;28;20462;-42
2022/05/24 11:49:28;;;;;;;1.40;0.63;;;19.70;54.30;;;;;;4989126;28;20464;-42
2022/05/24 11:51:57;;;;;;;1.47;0.70;;;19.70;54.10;;;;;;5003150;28;20566;-42
2022/05/24 11:54:23;;;;;;;3.07;0.70;;;19.70;54.10;;;;;;5004680;28;20463;-43
2022/05/24 11:57:00;;;;;;;2.40;0.67;;;19.80;55.20;;;;;;5009741;28;20464;-43
2022/05/24 11:59:48;;;;;;;0.80;0.50;;;19.90;55.30;;;;;;5009592;28;20535;-42
2022/05/24 12:02:19;;;;;;;1.20;0.80;;;19.90;55.20;;;;;;5004818;28;20968;-42
2022/05/24 12:07:54;;;;;;;0.60;0.53;;;20.10;54.50;;;;;;4992030;28;20474;-42
2022/05/24 12:10:21;;;;;;;1.03;0.40;;;20.10;51.90;;;;;;4985428;28;20561;-42
2022/05/24 12:12:56;;;;;;;5.60;0.50;;;20.10;53.20;;;;;;4984829;28;20496;-43
2022/05/24 12:15:29;;;;;;;2.20;0.50;;;20.10;52.40;;;;;;5004800;28;21056;-42
2022/05/24 12:17:59;;;;;;;0.70;0.50;;;20.20;52.80;;;;;;5001427;28;20506;-42
2022/05/24 12:20:48;;;;;;;1.20;0.50;;;20.20;52.60;;;;;;5006178;28;20511;-42
2022/05/24 12:23:18;;;;;;;0.80;0.50;;;20.20;51.60;;;;;;4984506;28;21942;-42
2022/05/24 12:26:08;;;;;;;0.70;0.60;;;20.30;51.30;;;;;;5004367;28;20928;-43
2022/05/24 12:28:36;;;;;;;2.40;0.50;;;20.30;51.50;;;;;;5003407;28;20471;-43
2022/05/24 12:31:18;;;;;;;1.13;0.50;;;20.30;51.60;;;;;;5002158;28;20642;-43
2022/05/24 12:33:55;;;;;;;1.00;0.70;;;20.30;53.40;;;;;;4987432;28;21040;-43
2022/05/24 12:36:30;;;;;;;0.50;0.50;;;20.40;52.30;;;;;;5005582;28;20466;-42
2022/05/24 12:39:21;;;;;;;1.50;0.47;;;20.40;53.00;;;;;;5000746;28;21076;-43
2022/05/24 12:41:56;;;;;;;0.70;0.50;;;20.40;53.10;;;;;;5005850;28;20767;-42
2022/05/24 12:44:30;;;;;;;1.63;1.50;;;20.50;53.80;;;;;;5006699;28;20459;-42
2022/05/24 12:47:17;;;;;;;0.63;0.40;;;20.60;51.70;;;;;;5004636;28;20554;-43
2022/05/24 12:49:50;;;;;;;1.13;0.97;;;20.60;52.60;;;;;;4993647;28;20502;-43
2022/05/24 12:52:22;;;;;;;0.80;0.50;;;20.60;52.10;;;;;;5007296;28;20530;-43
2022/05/24 12:54:58;;;;;;;2.20;0.40;;;20.60;53.50;;;;;;4992264;28;20464;-42
2022/05/24 12:57:32;;;;;;;0.60;0.60;;;20.60;52.30;;;;;;5007874;28;20542;-42
2022/05/24 13:00:08;;;;;;;0.70;0.60;;;20.60;51.30;;;;;;5007257;28;20461;-43
2022/05/24 13:02:43;;;;;;;0.73;0.50;;;20.70;51.90;;;;;;5010773;28;20459;-43
2022/05/24 13:05:18;;;;;;;1.00;0.47;;;20.70;52.70;;;;;;5010692;28;20486;-43
2022/05/24 13:08:05;;;;;;;1.83;0.53;;;20.60;52.90;;;;;;5009022;28;20476;-43
2022/05/24 13:10:37;;;;;;;0.90;0.60;;;20.70;51.70;;;;;;5008202;28;20463;-43
2022/05/24 13:13:06;;;;;;;1.20;0.43;;;20.70;51.70;;;;;;4986547;28;20529;-43
2022/05/24 13:15:49;;;;;;;1.73;0.70;;;20.80;52.40;;;;;;5009933;28;20907;-43
2022/05/24 13:18:17;;;;;;;1.70;0.80;;;20.80;51.60;;;;;;5011193;28;20506;-43
2022/05/24 13:20:51;;;;;;;2.00;0.50;;;20.80;51.70;;;;;;5010712;28;20464;-43
2022/05/24 13:23:40;;;;;;;1.20;0.60;;;20.80;50.40;;;;;;5010043;28;20553;-42
2022/05/24 13:26:08;;;;;;;0.67;0.50;;;20.80;51.20;;;;;;5010313;28;20898;-43
2022/05/24 13:28:42;;;;;;;1.73;0.70;;;20.80;51.60;;;;;;5008053;28;20949;-42
2022/05/24 13:33:59;;;;;;;0.73;0.60;;;20.80;50.90;;;;;;5009732;28;20503;-42
2022/05/24 13:36:38;;;;;;;1.23;0.60;;;20.90;52.00;;;;;;5005807;28;20474;-42
2022/05/24 13:39:13;;;;;;;1.50;0.60;;;20.80;53.40;;;;;;5006201;28;20977;-42
2022/05/24 13:42:05;;;;;;;1.60;0.73;;;20.90;53.40;;;;;;5009829;28;20543;-42
2022/05/24 13:45:13;;;;;;;1.27;0.70;;;20.90;52.90;;;;;;4989044;28;20476;-42
2022/05/24 13:47:47;;;;;;;0.60;0.57;;;20.90;52.90;;;;;;5007298;28;20457;-42
2022/05/24 13:50:29;;;;;;;0.60;0.60;;;20.90;51.90;;;;;;5008558;28;20490;-43
2022/05/24 13:53:04;;;;;;;1.20;0.47;;;20.80;54.80;;;;;;5006638;28;20480;-42
2022/05/24 13:55:40;;;;;;;0.60;0.60;;;20.90;52.20;;;;;;5008963;28;21121;-43